createdAt,value
2023-04-03T00:01:05.594Z,101548.91
2023-04-03T00:03:32.151Z,101540.34
2023-04-03T00:06:01.055Z,101547.81
2023-04-03T00:08:27.562Z,101549.00
2023-04-03T00:10:54.052Z,101546.00
2023-04-03T00:13:20.531Z,101542.72
2023-04-03T00:15:49.515Z,101545.41
2023-04-03T00:18:16.036Z,101546.88
2023-04-03T00:20:42.479Z,101550.72
2023-04-03T00:23:11.947Z,101554.50
2023-04-03T00:25:38.683Z,101553.75
2023-04-03T00:28:05.864Z,101548.47
2023-04-03T00:30:32.864Z,101551.56
2023-04-03T00:33:02.326Z,101550.66
2023-04-03T00:35:29.657Z,101544.72
2023-04-03T00:37:56.699Z,101559.56
2023-04-03T00:40:27.653Z,101564.38
2023-04-03T00:42:59.805Z,101559.44
2023-04-03T00:45:36.231Z,101561.94
2023-04-03T00:48:07.352Z,101567.69
2023-04-03T00:50:37.060Z,101561.53
2023-04-03T00:53:06.120Z,101563.09
2023-04-03T00:55:33.731Z,101558.47
2023-04-03T00:58:02.402Z,101565.38
2023-04-03T01:00:29.389Z,101548.59
2023-04-03T01:02:56.067Z,101551.94
2023-04-03T01:05:23.041Z,101555.38
2023-04-03T01:07:54.568Z,101555.50
2023-04-03T01:10:21.808Z,101557.38
2023-04-03T01:12:51.271Z,101550.28
2023-04-03T01:15:27.318Z,101549.13
2023-04-03T01:17:58.055Z,101551.13
2023-04-03T01:20:37.332Z,101548.81
2023-04-03T01:23:13.458Z,101547.16
2023-04-03T01:25:52.204Z,101555.38
2023-04-03T01:28:28.462Z,101555.78
2023-04-03T01:31:21.078Z,101552.56
2023-04-03T01:33:52.363Z,101552.06
2023-04-03T01:36:22.875Z,101549.75
2023-04-03T01:38:49.512Z,101554.84
2023-04-03T01:41:18.868Z,101562.78
2023-04-03T01:43:45.632Z,101556.53
2023-04-03T01:46:12.384Z,101552.38
2023-04-03T01:48:39.045Z,101556.94
2023-04-03T01:51:05.788Z,101562.25
2023-04-03T01:53:32.229Z,101559.78
2023-04-03T01:55:58.643Z,101561.84
2023-04-03T01:58:25.452Z,101573.00
2023-04-03T02:00:52.497Z,101571.41
2023-04-03T02:03:19.476Z,101562.16
2023-04-03T02:05:46.267Z,101560.59
2023-04-03T02:08:13.195Z,101559.44
2023-04-03T02:10:39.622Z,101562.78
2023-04-03T02:13:06.243Z,101564.00
2023-04-03T02:15:32.642Z,101556.72
2023-04-03T02:17:59.092Z,101555.38
2023-04-03T02:20:25.680Z,101558.09
2023-04-03T02:22:54.448Z,101561.81
2023-04-03T02:25:21.307Z,101550.06
2023-04-03T02:27:53.085Z,101558.72
2023-04-03T02:30:19.596Z,101556.94
2023-04-03T02:32:46.266Z,101552.47
2023-04-03T02:35:15.024Z,101548.31
2023-04-03T02:37:41.565Z,101551.94
2023-04-03T02:40:09.889Z,101546.72
2023-04-03T02:42:36.389Z,101543.09
2023-04-03T02:45:05.532Z,101550.97
2023-04-03T02:47:32.093Z,101540.28
2023-04-03T02:50:01.102Z,101543.09
2023-04-03T02:52:27.601Z,101552.25
2023-04-03T02:54:53.952Z,101546.41
2023-04-03T02:57:21.100Z,101555.06
2023-04-03T02:59:47.745Z,101549.72
2023-04-03T03:02:14.171Z,101555.75
2023-04-03T03:04:43.710Z,101551.88
2023-04-03T03:07:10.475Z,101551.19
2023-04-03T03:09:37.087Z,101556.06
2023-04-03T03:12:03.855Z,101542.50
2023-04-03T03:14:30.424Z,101549.88
2023-04-03T03:16:56.743Z,101552.31
2023-04-03T03:19:23.342Z,101547.50
2023-04-03T03:21:49.828Z,101555.63
2023-04-03T03:24:16.781Z,101548.34
2023-04-03T03:26:43.617Z,101554.97
2023-04-03T03:29:10.002Z,101557.59
2023-04-03T03:31:36.435Z,101560.81
2023-04-03T03:34:03.235Z,101559.53
2023-04-03T03:36:29.612Z,101563.38
2023-04-03T03:38:56.108Z,101567.31
2023-04-03T03:41:22.562Z,101562.88
2023-04-03T03:43:58.720Z,101566.56
2023-04-03T03:46:25.268Z,101555.38
2023-04-03T03:48:51.799Z,101563.88
2023-04-03T03:51:18.270Z,101567.63
2023-04-03T03:53:44.639Z,101577.97
2023-04-03T03:56:11.389Z,101573.13
2023-04-03T03:58:38.191Z,101580.00
2023-04-03T04:01:06.758Z,101576.69
2023-04-03T04:03:34.135Z,101577.31
2023-04-03T04:06:01.103Z,101578.53
2023-04-03T04:08:27.556Z,101574.91
2023-04-03T04:10:53.976Z,101571.63
2023-04-03T04:13:23.029Z,101568.94
2023-04-03T04:15:49.667Z,101570.34
2023-04-03T04:18:16.182Z,101566.63
2023-04-03T04:20:46.353Z,101566.97
2023-04-03T04:23:12.768Z,101571.22
2023-04-03T04:25:41.657Z,101567.94
2023-04-03T04:28:08.172Z,101572.69
2023-04-03T04:30:36.950Z,101582.44
2023-04-03T04:33:04.053Z,101568.50
2023-04-03T04:35:30.518Z,101576.00
2023-04-03T04:37:57.273Z,101571.47
2023-04-03T04:40:23.897Z,101572.75
2023-04-03T04:42:50.622Z,101572.09
2023-04-03T04:45:17.248Z,101566.97
2023-04-03T04:47:43.862Z,101571.59
2023-04-03T04:50:13.476Z,101569.63
2023-04-03T04:52:40.060Z,101562.28
2023-04-03T04:55:06.882Z,101572.75
2023-04-03T04:57:33.490Z,101573.63
2023-04-03T05:00:00.068Z,101578.28
2023-04-03T05:02:28.859Z,101574.56
2023-04-03T05:04:55.533Z,101579.03
2023-04-03T05:07:22.174Z,101584.81
2023-04-03T05:09:48.688Z,101582.53
2023-04-03T05:12:18.264Z,101592.09
2023-04-03T05:14:44.654Z,101590.78
2023-04-03T05:17:11.148Z,101591.59
2023-04-03T05:19:37.641Z,101590.09
2023-04-03T05:22:04.046Z,101593.63
2023-04-03T05:24:30.824Z,101592.75
2023-04-03T05:26:57.241Z,101595.69
2023-04-03T05:29:23.650Z,101600.13
2023-04-03T05:31:51.387Z,101597.88
2023-04-03T05:34:25.448Z,101598.59
2023-04-03T05:36:51.963Z,101590.41
2023-04-03T05:39:18.644Z,101595.72
2023-04-03T05:41:47.544Z,101602.34
2023-04-03T05:44:13.950Z,101601.59
2023-04-03T05:46:42.672Z,101600.06
2023-04-03T05:49:09.070Z,101600.91
2023-04-03T05:51:37.279Z,101603.19
2023-04-03T05:54:17.273Z,101606.13
2023-04-03T05:56:43.989Z,101607.06
2023-04-03T05:59:10.435Z,101606.13
2023-04-03T06:01:36.792Z,101605.25
2023-04-03T06:04:04.249Z,101600.41
2023-04-03T06:06:52.598Z,101603.44
2023-04-03T06:09:21.850Z,101601.66
2023-04-03T06:11:50.518Z,101609.19
2023-04-03T06:14:19.300Z,101609.66
2023-04-03T06:16:46.427Z,101605.75
2023-04-03T06:19:13.280Z,101607.19
2023-04-03T06:21:39.820Z,101605.44
2023-04-03T06:24:06.866Z,101611.56
2023-04-03T06:26:34.236Z,101602.06
2023-04-03T06:29:01.156Z,101607.97
2023-04-03T06:31:27.792Z,101610.09
2023-04-03T06:33:54.620Z,101614.13
2023-04-03T06:36:21.995Z,101606.41
2023-04-03T06:38:56.115Z,101612.63
2023-04-03T06:41:22.915Z,101613.06
2023-04-03T06:43:49.518Z,101604.72
2023-04-03T06:46:21.987Z,101600.50
2023-04-03T06:48:49.650Z,101599.03
2023-04-03T06:51:24.551Z,101597.84
2023-04-03T06:53:55.388Z,101608.28
2023-04-03T06:56:22.501Z,101602.72
2023-04-03T06:58:49.704Z,101607.94
2023-04-03T07:01:20.077Z,101609.13
2023-04-03T07:03:48.923Z,101615.56
2023-04-03T07:06:17.620Z,101618.81
2023-04-03T07:08:44.674Z,101611.50
2023-04-03T07:11:14.581Z,101611.84
2023-04-03T07:13:41.419Z,101621.94
2023-04-03T07:16:11.420Z,101622.91
2023-04-03T07:18:38.073Z,101628.41
2023-04-03T07:21:05.135Z,101625.22
2023-04-03T07:23:31.573Z,101627.50
2023-04-03T07:25:58.188Z,101634.06
2023-04-03T07:28:25.353Z,101641.03
2023-04-03T07:30:57.131Z,101636.69
2023-04-03T07:33:24.040Z,101640.53
2023-04-03T07:35:50.675Z,101636.47
2023-04-03T07:38:17.343Z,101640.63
2023-04-03T07:40:48.414Z,101650.41
2023-04-03T07:43:15.916Z,101637.88
2023-04-03T07:45:44.169Z,101652.78
2023-04-03T07:48:14.313Z,101646.59
2023-04-03T07:50:41.960Z,101659.41
2023-04-03T07:53:09.008Z,101656.81
2023-04-03T07:55:43.818Z,101644.06
2023-04-03T07:58:15.652Z,101650.81
2023-04-03T08:00:45.527Z,101649.47
2023-04-03T08:03:12.900Z,101654.38
2023-04-03T08:05:43.784Z,101656.16
2023-04-03T08:08:12.661Z,101658.47
2023-04-03T08:10:39.195Z,101657.91
2023-04-03T08:13:10.777Z,101652.50
2023-04-03T08:15:37.796Z,101654.22
2023-04-03T08:18:04.850Z,101653.84
2023-04-03T08:20:34.466Z,101661.94
2023-04-03T08:23:00.907Z,101666.50
2023-04-03T08:25:30.519Z,101654.09
2023-04-03T08:27:59.364Z,101656.03
2023-04-03T08:30:26.038Z,101657.66
2023-04-03T08:32:52.757Z,101658.94
2023-04-03T08:35:20.906Z,101663.16
2023-04-03T08:37:47.718Z,101663.75
2023-04-03T08:40:17.153Z,101661.81
2023-04-03T08:43:07.389Z,101670.16
2023-04-03T08:45:56.986Z,101663.50
2023-04-03T08:48:37.655Z,101659.56
2023-04-03T08:51:15.890Z,101663.59
2023-04-03T08:53:59.321Z,101657.97
2023-04-03T08:56:28.477Z,101668.09
2023-04-03T08:59:05.468Z,101663.84
2023-04-03T09:01:41.776Z,101664.81
2023-04-03T09:04:19.480Z,101656.81
2023-04-03T09:07:01.005Z,101662.06
2023-04-03T09:09:42.343Z,101666.50
2023-04-03T09:12:20.757Z,101674.09
2023-04-03T09:14:58.737Z,101658.09
2023-04-03T09:17:36.349Z,101663.91
2023-04-03T09:20:26.941Z,101663.13
2023-04-03T09:22:54.912Z,101668.28
2023-04-03T09:25:28.282Z,101665.50
2023-04-03T09:27:55.389Z,101666.06
2023-04-03T09:30:27.086Z,101658.06
2023-04-03T09:32:55.721Z,101660.72
2023-04-03T09:35:36.384Z,101641.88
2023-04-03T09:38:10.892Z,101657.94
2023-04-03T09:40:42.153Z,101653.38
2023-04-03T09:43:17.668Z,101652.00
2023-04-03T09:45:48.514Z,101652.66
2023-04-03T09:48:16.261Z,101636.75
2023-04-03T09:50:52.293Z,101640.66
2023-04-03T09:53:45.604Z,101642.50
2023-04-03T09:56:17.981Z,101641.88
2023-04-03T09:59:14.634Z,101639.56
2023-04-03T10:01:43.077Z,101641.91
2023-04-03T10:04:20.669Z,101644.47
2023-04-03T10:06:51.024Z,101639.75
2023-04-03T10:09:22.003Z,101654.88
2023-04-03T10:12:07.754Z,101654.34
2023-04-03T10:14:36.974Z,101641.47
2023-04-03T10:17:09.724Z,101636.22
2023-04-03T10:19:53.946Z,101642.69
2023-04-03T10:22:31.401Z,101639.66
2023-04-03T10:25:32.867Z,101638.38
2023-04-03T10:28:03.885Z,101637.03
2023-04-03T10:30:59.363Z,101629.44
2023-04-03T10:33:50.671Z,101626.22
2023-04-03T10:36:41.009Z,101626.53
2023-04-03T10:39:23.020Z,101629.56
2023-04-03T10:42:16.705Z,101631.06
2023-04-03T10:44:51.480Z,101638.97
2023-04-03T10:47:52.895Z,101633.31
2023-04-03T10:50:42.767Z,101634.25
2023-04-03T10:53:25.063Z,101629.81
2023-04-03T10:55:56.411Z,101631.03
2023-04-03T10:58:32.704Z,101617.59
2023-04-03T11:01:08.041Z,101631.06
2023-04-03T11:03:41.551Z,101627.59
2023-04-03T11:06:15.589Z,101625.34
2023-04-03T11:09:03.954Z,101623.59
2023-04-03T11:11:40.824Z,101621.28
2023-04-03T11:14:14.242Z,101617.44
2023-04-03T11:17:02.595Z,101622.44
2023-04-03T11:20:07.786Z,101623.53
2023-04-03T11:22:41.929Z,101622.44
2023-04-03T11:25:17.588Z,101616.66
2023-04-03T11:28:12.878Z,101615.06
2023-04-03T11:31:04.771Z,101612.47
2023-04-03T11:33:53.528Z,101613.91
2023-04-03T11:36:28.843Z,101625.72
2023-04-03T11:39:11.187Z,101617.31
2023-04-03T11:41:39.956Z,101621.53
2023-04-03T11:44:28.278Z,101629.69
2023-04-03T11:46:59.508Z,101617.59
2023-04-03T11:49:59.054Z,101613.66
2023-04-03T11:52:44.807Z,101614.75
2023-04-03T11:55:23.293Z,101620.84
2023-04-03T11:57:59.139Z,101616.81
2023-04-03T12:00:44.551Z,101615.00
2023-04-03T12:03:26.028Z,101616.13
2023-04-03T12:05:53.741Z,101613.06
2023-04-03T12:08:34.307Z,101614.19
2023-04-03T12:11:26.332Z,101607.19
2023-04-03T12:13:52.662Z,101607.38
2023-04-03T12:16:43.291Z,101610.56
2023-04-03T12:19:15.854Z,101598.09
2023-04-03T12:21:49.055Z,101603.38
2023-04-03T12:24:18.616Z,101599.22
2023-04-03T12:27:22.057Z,101606.16
2023-04-03T12:29:55.184Z,101598.13
2023-04-03T12:32:49.307Z,101605.19
2023-04-03T12:35:29.592Z,101594.50
2023-04-03T12:38:31.755Z,101603.13
2023-04-03T12:41:23.493Z,101605.50
2023-04-03T12:44:05.212Z,101593.31
2023-04-03T12:46:43.114Z,101596.75
2023-04-03T12:49:38.586Z,101589.66
2023-04-03T12:52:29.923Z,101582.38
2023-04-03T12:54:58.302Z,101587.22
2023-04-03T12:57:27.452Z,101595.66
2023-04-03T12:59:57.342Z,101575.59
2023-04-03T13:02:30.998Z,101575.59
2023-04-03T13:05:06.664Z,101569.13
2023-04-03T13:07:38.305Z,101571.03
2023-04-03T13:10:16.932Z,101567.63
2023-04-03T13:12:55.096Z,101559.22
2023-04-03T13:15:28.065Z,101565.66
2023-04-03T13:17:55.642Z,101563.00
2023-04-03T13:20:28.099Z,101572.84
2023-04-03T13:22:59.314Z,101570.22
2023-04-03T13:25:30.905Z,101571.16
2023-04-03T13:28:12.723Z,101575.75
2023-04-03T13:30:41.954Z,101573.13
2023-04-03T13:33:30.422Z,101566.34
2023-04-03T13:36:02.860Z,101560.09
2023-04-03T13:38:34.874Z,101565.78
2023-04-03T13:41:06.055Z,101570.72
2023-04-03T13:43:37.833Z,101559.91
2023-04-03T13:46:13.391Z,101556.94
2023-04-03T13:48:49.266Z,101559.22
2023-04-03T13:51:15.996Z,101556.94
2023-04-03T13:53:56.483Z,101548.81
2023-04-03T13:56:34.725Z,101558.84
2023-04-03T13:59:25.484Z,101546.75
2023-04-03T14:02:03.843Z,101543.88
2023-04-03T14:04:45.740Z,101537.66
2023-04-03T14:07:13.374Z,101543.59
2023-04-03T14:09:39.812Z,101546.88
2023-04-03T14:12:24.228Z,101549.03
2023-04-03T14:14:57.441Z,101552.50
2023-04-03T14:17:26.120Z,101539.75
2023-04-03T14:19:56.175Z,101541.94
2023-04-03T14:22:27.225Z,101532.47
2023-04-03T14:24:54.177Z,101526.81
2023-04-03T14:27:26.321Z,101525.53
2023-04-03T14:29:57.147Z,101523.41
2023-04-03T14:32:28.173Z,101529.91
2023-04-03T14:34:55.034Z,101514.97
2023-04-03T14:37:25.507Z,101508.53
2023-04-03T14:39:55.496Z,101520.91
2023-04-03T14:42:25.973Z,101510.44
2023-04-03T14:44:52.507Z,101511.50
2023-04-03T14:47:31.144Z,101501.53
2023-04-03T14:50:03.541Z,101500.16
2023-04-03T14:52:34.343Z,101494.22
2023-04-03T14:55:01.944Z,101497.94
2023-04-03T14:57:30.333Z,101495.22
2023-04-03T14:59:57.246Z,101499.81
2023-04-03T15:02:32.042Z,101492.75
2023-04-03T15:05:00.245Z,101487.19
2023-04-03T15:07:30.461Z,101492.34
2023-04-03T15:09:57.500Z,101487.06
2023-04-03T15:12:26.851Z,101482.81
2023-04-03T15:15:01.737Z,101479.56
2023-04-03T15:17:30.206Z,101487.31
2023-04-03T15:19:56.929Z,101484.03
2023-04-03T15:22:23.326Z,101481.94
2023-04-03T15:24:52.383Z,101484.00
2023-04-03T15:27:19.039Z,101485.78
2023-04-03T15:29:46.484Z,101489.97
2023-04-03T15:32:13.722Z,101479.13
2023-04-03T15:34:43.818Z,101488.72
2023-04-03T15:37:10.248Z,101489.16
2023-04-03T15:39:36.682Z,101480.88
2023-04-03T15:42:07.076Z,101482.53
2023-04-03T15:44:37.239Z,101499.00
2023-04-03T15:47:04.081Z,101483.91
2023-04-03T15:49:33.153Z,101489.44
2023-04-03T15:51:59.774Z,101484.47
2023-04-03T15:54:26.332Z,101506.53
2023-04-03T15:56:56.396Z,101503.38
2023-04-03T15:59:25.202Z,101502.03
2023-04-03T16:01:53.211Z,101502.44
2023-04-03T16:04:21.642Z,101493.47
2023-04-03T16:06:48.148Z,101495.81
2023-04-03T16:09:14.683Z,101502.44
2023-04-03T16:11:41.200Z,101497.31
2023-04-03T16:14:11.339Z,101501.06
2023-04-03T16:16:40.423Z,101497.75
2023-04-03T16:19:07.014Z,101507.44
2023-04-03T16:21:35.023Z,101502.44
2023-04-03T16:24:02.493Z,101507.00
2023-04-03T16:26:29.553Z,101499.81
2023-04-03T16:28:58.418Z,101505.19
2023-04-03T16:31:26.559Z,101505.63
2023-04-03T16:33:55.545Z,101503.28
2023-04-03T16:36:22.066Z,101508.53
2023-04-03T16:38:48.680Z,101500.34
2023-04-03T16:41:17.390Z,101506.03
2023-04-03T16:43:44.202Z,101508.78
2023-04-03T16:46:13.182Z,101512.09
2023-04-03T16:48:39.595Z,101508.78
2023-04-03T16:51:06.163Z,101511.09
2023-04-03T16:53:32.713Z,101508.47
2023-04-03T16:56:01.472Z,101514.50
2023-04-03T16:58:27.924Z,101513.09
2023-04-03T17:00:56.972Z,101510.06
2023-04-03T17:03:26.487Z,101510.22
2023-04-03T17:05:53.088Z,101512.50
2023-04-03T17:08:20.224Z,101508.97
2023-04-03T17:10:46.633Z,101519.88
2023-04-03T17:13:13.299Z,101527.75
2023-04-03T17:15:40.233Z,101521.69
2023-04-03T17:18:08.195Z,101520.69
2023-04-03T17:20:34.773Z,101516.97
2023-04-03T17:23:01.463Z,101525.44
2023-04-03T17:25:28.028Z,101524.81
2023-04-03T17:27:54.734Z,101529.09
2023-04-03T17:30:21.112Z,101521.81
2023-04-03T17:32:47.571Z,101525.41
2023-04-03T17:35:14.239Z,101528.38
2023-04-03T17:37:40.702Z,101536.16
2023-04-03T17:40:07.756Z,101535.13
2023-04-03T17:42:34.176Z,101537.88
2023-04-03T17:45:01.263Z,101536.59
2023-04-03T17:47:29.976Z,101540.50
2023-04-03T17:49:56.402Z,101539.38
2023-04-03T17:52:25.375Z,101540.13
2023-04-03T17:54:51.974Z,101540.84
2023-04-03T17:57:18.602Z,101550.97
2023-04-03T17:59:45.460Z,101552.09
2023-04-03T18:02:11.894Z,101544.09
2023-04-03T18:04:38.408Z,101547.13
2023-04-03T18:07:09.685Z,101545.72
2023-04-03T18:09:37.689Z,101555.13
2023-04-03T18:12:09.959Z,101551.03
2023-04-03T18:14:38.414Z,101556.19
2023-04-03T18:17:08.015Z,101552.97
2023-04-03T18:19:34.860Z,101552.16
2023-04-03T18:22:04.692Z,101555.19
2023-04-03T18:24:34.310Z,101561.13
2023-04-03T18:27:04.214Z,101555.53
2023-04-03T18:29:33.884Z,101565.41
2023-04-03T18:32:04.280Z,101565.91
2023-04-03T18:34:33.627Z,101564.56
2023-04-03T18:37:00.900Z,101566.97
2023-04-03T18:39:30.555Z,101567.22
2023-04-03T18:42:02.932Z,101568.63
2023-04-03T18:44:32.944Z,101577.16
2023-04-03T18:47:02.325Z,101577.53
2023-04-03T18:49:31.663Z,101569.00
2023-04-03T18:51:58.473Z,101561.84
2023-04-03T18:54:25.087Z,101572.69
2023-04-03T18:56:51.648Z,101577.28
2023-04-03T18:59:20.863Z,101580.09
2023-04-03T19:01:47.455Z,101582.13
2023-04-03T19:04:14.355Z,101583.09
2023-04-03T19:06:41.007Z,101590.44
2023-04-03T19:09:08.037Z,101589.16
2023-04-03T19:11:34.838Z,101589.72
2023-04-03T19:14:15.965Z,101599.09
2023-04-03T19:16:43.712Z,101600.00
2023-04-03T19:19:10.544Z,101600.63
2023-04-03T19:21:41.490Z,101605.00
2023-04-03T19:24:12.625Z,101606.22
2023-04-03T19:26:39.869Z,101598.28
2023-04-03T19:29:08.978Z,101605.38
2023-04-03T19:31:37.206Z,101605.88
2023-04-03T19:34:05.267Z,101602.38
2023-04-03T19:36:33.128Z,101609.72
2023-04-03T19:38:59.667Z,101604.38
2023-04-03T19:41:30.187Z,101606.84
2023-04-03T19:43:57.346Z,101606.50
2023-04-03T19:46:25.885Z,101618.16
2023-04-03T19:48:52.724Z,101607.66
2023-04-03T19:51:21.771Z,101609.31
2023-04-03T19:53:48.614Z,101609.69
2023-04-03T19:56:16.901Z,101615.84
2023-04-03T19:58:44.081Z,101610.06
2023-04-03T20:01:10.602Z,101613.72
2023-04-03T20:03:36.919Z,101616.34
2023-04-03T20:06:04.948Z,101617.59
2023-04-03T20:08:31.750Z,101609.06
2023-04-03T20:10:58.139Z,101614.13
2023-04-03T20:13:27.285Z,101615.28
2023-04-03T20:15:53.759Z,101616.38
2023-04-03T20:18:24.169Z,101624.13
2023-04-03T20:20:55.174Z,101624.78
2023-04-03T20:23:21.787Z,101626.41
2023-04-03T20:26:01.433Z,101617.53
2023-04-03T20:28:36.241Z,101621.28
2023-04-03T20:31:03.534Z,101618.34
2023-04-03T20:33:30.129Z,101616.25
2023-04-03T20:35:58.124Z,101628.13
2023-04-03T20:38:25.212Z,101625.50
2023-04-03T20:40:52.158Z,101616.91
2023-04-03T20:43:19.740Z,101616.56
2023-04-03T20:45:47.931Z,101619.53
2023-04-03T20:48:15.068Z,101621.72
2023-04-03T20:50:41.862Z,101619.06
2023-04-03T20:53:12.176Z,101612.50
2023-04-03T20:55:39.065Z,101615.34
2023-04-03T20:58:06.008Z,101615.72
2023-04-03T21:00:37.530Z,101619.63
2023-04-03T21:03:04.053Z,101621.72
2023-04-03T21:05:30.628Z,101623.63
2023-04-03T21:08:37.519Z,101623.63
2023-04-03T21:11:41.379Z,101628.06
2023-04-03T21:14:46.758Z,101613.25
2023-04-03T21:17:13.400Z,101617.28
2023-04-03T21:19:45.977Z,101612.34
2023-04-03T21:22:16.141Z,101620.19
2023-04-03T21:24:44.320Z,101618.53
2023-04-03T21:27:11.347Z,101620.31
2023-04-03T21:29:40.453Z,101622.50
2023-04-03T21:32:09.505Z,101632.34
2023-04-03T21:34:35.877Z,101623.97
2023-04-03T21:37:04.879Z,101634.09
2023-04-03T21:39:31.604Z,101629.28
2023-04-03T21:41:58.002Z,101624.78
2023-04-03T21:44:28.608Z,101633.03
2023-04-03T21:46:55.387Z,101627.78
2023-04-03T21:49:23.205Z,101637.84
2023-04-03T21:51:53.290Z,101628.03
2023-04-03T21:54:20.610Z,101627.13
2023-04-03T21:56:51.400Z,101636.09
2023-04-03T21:59:18.210Z,101632.22
2023-04-03T22:01:44.893Z,101636.81
2023-04-03T22:04:11.474Z,101634.09
2023-04-03T22:06:38.181Z,101633.66
2023-04-03T22:09:04.861Z,101627.22
2023-04-03T22:11:31.268Z,101631.19
2023-04-03T22:14:00.233Z,101619.53
2023-04-03T22:16:27.392Z,101622.34
2023-04-03T22:18:54.657Z,101628.91
2023-04-03T22:21:23.329Z,101624.41
2023-04-03T22:23:49.779Z,101624.19
2023-04-03T22:26:17.330Z,101629.41
2023-04-03T22:28:47.074Z,101631.94
2023-04-03T22:31:14.881Z,101625.66
2023-04-03T22:33:42.425Z,101619.94
2023-04-03T22:36:11.890Z,101625.75
2023-04-03T22:38:43.342Z,101617.81
2023-04-03T22:41:10.768Z,101614.50
2023-04-03T22:43:37.927Z,101610.44
2023-04-03T22:46:06.628Z,101605.00
2023-04-03T22:48:35.644Z,101606.13
2023-04-03T22:51:07.443Z,101607.72
2023-04-03T22:53:35.011Z,101602.44
2023-04-03T22:56:03.644Z,101598.88
2023-04-03T22:58:30.414Z,101607.53
2023-04-03T23:01:07.746Z,101603.03
2023-04-03T23:03:38.732Z,101606.28
2023-04-03T23:06:06.459Z,101605.44
2023-04-03T23:08:34.999Z,101602.63
2023-04-03T23:11:04.433Z,101608.13
2023-04-03T23:13:30.977Z,101597.91
2023-04-03T23:15:59.852Z,101603.69
2023-04-03T23:18:29.447Z,101610.44
2023-04-03T23:20:56.980Z,101618.41
2023-04-03T23:23:24.500Z,101609.63
2023-04-03T23:25:54.964Z,101611.34
2023-04-03T23:28:21.615Z,101617.09
2023-04-03T23:30:48.122Z,101619.16
2023-04-03T23:33:15.127Z,101625.06
2023-04-03T23:35:46.678Z,101614.84
2023-04-03T23:38:13.482Z,101621.75
2023-04-03T23:40:41.773Z,101615.06
2023-04-03T23:43:08.794Z,101621.06
2023-04-03T23:45:35.636Z,101616.59
2023-04-03T23:48:02.279Z,101622.44
2023-04-03T23:50:31.268Z,101614.53
2023-04-03T23:52:57.785Z,101627.47
2023-04-03T23:55:24.416Z,101611.81
2023-04-03T23:57:50.784Z,101615.41
